IN-0066 weather

Madhubani Airport
Bihar, India

Public forecast

Using degrees Celsius for public forecast. Weather courtesy of forecast.io.

METAR (pilot weather report)

Closest report is Lok Nayak Jayaprakash Airport, 68.7 nm (127.2 km) SW. Retrieved 2019/04/22 13:30 UTC (6 minutes ago):

VEPT 221330Z 07008KT 4500 HZ SCT018 32/17 Q1004 NOSIG

TAF (pilot weather forecast)

Closest forecast is Lok Nayak Jayaprakash Airport, 68.7 nm (127.2 km) SW. Retrieved 2019/04/22 12:00 UTC (2 hours ago):

TAF VEPT 221100Z 2212/2318 05005KT 5000 HZ FEW020 BECMG 2219/2221 09005KT 4000 HZ NSC BECMG 2223/2301 13006KT 3000 HZ SCT020 BECMG 2303/2305 07005KT 4000 HZ NSC BECMG 2307/2309 05008KT 5000 HZ SCT020 BECMG 2312/2314 4500 HZ SCT020 SCT100 BECMG 2316/2318 05005KT 4000 HZ SCT020